createdAt,value
2022-09-18T00:01:11.692Z,5.80
2022-09-18T00:03:40.849Z,6.30
2022-09-18T00:06:19.842Z,7.63
2022-09-18T00:08:48.461Z,5.60
2022-09-18T00:11:16.217Z,6.90
2022-09-18T00:13:43.443Z,5.65
2022-09-18T00:16:12.494Z,5.72
2022-09-18T00:18:39.617Z,5.88
2022-09-18T00:21:09.166Z,5.57
2022-09-18T00:23:36.141Z,5.82
2022-09-18T00:26:03.703Z,6.10
2022-09-18T00:28:30.570Z,5.80
2022-09-18T00:31:07.555Z,5.80
2022-09-18T00:33:34.613Z,5.72
2022-09-18T00:36:03.681Z,5.63
2022-09-18T00:38:33.998Z,6.10
2022-09-18T00:41:03.009Z,5.68
2022-09-18T00:43:32.377Z,6.28
2022-09-18T00:46:07.602Z,6.35
2022-09-18T00:48:59.147Z,5.75
2022-09-18T00:51:26.321Z,5.68
2022-09-18T00:54:03.567Z,5.43
2022-09-18T00:56:30.357Z,6.05
2022-09-18T00:58:56.981Z,5.50
2022-09-18T01:01:23.701Z,5.72
2022-09-18T01:03:50.456Z,6.20
2022-09-18T01:06:25.345Z,5.70
2022-09-18T01:09:28.204Z,5.60
2022-09-18T01:12:15.534Z,5.25
2022-09-18T01:14:56.966Z,5.43
2022-09-18T01:17:50.323Z,5.70
2022-09-18T01:20:28.871Z,5.68
2022-09-18T01:23:25.397Z,5.93
2022-09-18T01:25:57.131Z,5.10
2022-09-18T01:28:37.459Z,6.05
2022-09-18T01:31:10.040Z,6.00
2022-09-18T01:33:52.552Z,5.38
2022-09-18T01:36:22.725Z,5.70
2022-09-18T01:38:57.219Z,5.63
2022-09-18T01:41:29.003Z,5.60
2022-09-18T01:44:11.919Z,5.80
2022-09-18T01:46:41.558Z,5.28
2022-09-18T01:49:12.561Z,5.30
2022-09-18T01:51:49.275Z,5.60
2022-09-18T01:54:20.807Z,5.50
2022-09-18T01:57:11.779Z,5.30
2022-09-18T01:59:45.122Z,5.20
2022-09-18T02:02:24.584Z,4.97
2022-09-18T02:04:57.907Z,5.65
2022-09-18T02:07:31.616Z,5.43
2022-09-18T02:09:58.832Z,5.40
2022-09-18T02:12:28.914Z,5.60
2022-09-18T02:14:59.222Z,5.22
2022-09-18T02:17:34.942Z,5.72
2022-09-18T02:20:10.970Z,5.82
2022-09-18T02:22:38.093Z,5.47
2022-09-18T02:25:07.510Z,5.10
2022-09-18T02:27:37.910Z,5.10
2022-09-18T02:30:06.482Z,5.28
2022-09-18T02:32:36.901Z,5.70
2022-09-18T02:35:04.883Z,5.00
2022-09-18T02:37:52.037Z,5.20
2022-09-18T02:40:35.393Z,5.00
2022-09-18T02:43:23.543Z,4.95
2022-09-18T02:46:27.416Z,5.25
2022-09-18T02:49:05.655Z,4.93
2022-09-18T02:51:37.210Z,5.10
2022-09-18T02:54:26.561Z,5.22
2022-09-18T02:56:58.864Z,5.53
2022-09-18T02:59:31.680Z,5.40
2022-09-18T03:01:59.203Z,5.35
2022-09-18T03:04:27.782Z,5.43
2022-09-18T03:06:55.289Z,5.30
2022-09-18T03:09:22.178Z,5.20
2022-09-18T03:11:49.822Z,5.00
2022-09-18T03:14:16.704Z,5.30
2022-09-18T03:16:43.336Z,5.28
2022-09-18T03:19:11.724Z,4.90
2022-09-18T03:21:38.440Z,4.82
2022-09-18T03:24:05.515Z,5.43
2022-09-18T03:26:32.557Z,4.95
2022-09-18T03:28:59.253Z,5.30
2022-09-18T03:31:25.961Z,5.00
2022-09-18T03:33:52.681Z,5.10
2022-09-18T03:36:19.375Z,5.00
2022-09-18T03:38:46.021Z,5.05
2022-09-18T03:41:12.617Z,5.13
2022-09-18T03:43:39.745Z,4.95
2022-09-18T03:46:06.449Z,5.18
2022-09-18T03:48:33.307Z,5.28
2022-09-18T03:51:00.199Z,4.97
2022-09-18T03:53:26.831Z,4.70
2022-09-18T03:55:53.470Z,5.03
2022-09-18T03:58:20.089Z,5.50
2022-09-18T04:00:46.819Z,5.20
2022-09-18T04:03:13.658Z,5.10
2022-09-18T04:05:40.436Z,4.95
2022-09-18T04:08:07.228Z,5.50
2022-09-18T04:10:33.919Z,5.10
2022-09-18T04:13:00.649Z,4.95
2022-09-18T04:15:27.242Z,4.82
2022-09-18T04:17:53.967Z,5.13
2022-09-18T04:20:20.621Z,4.80
2022-09-18T04:22:47.263Z,4.88
2022-09-18T04:25:13.963Z,4.85
2022-09-18T04:27:40.598Z,4.88
2022-09-18T04:30:07.754Z,5.05
2022-09-18T04:32:34.422Z,4.65
2022-09-18T04:35:01.089Z,4.97
2022-09-18T04:37:27.808Z,4.88
2022-09-18T04:39:54.491Z,4.63
2022-09-18T04:42:21.223Z,4.72
2022-09-18T04:44:47.846Z,4.97
2022-09-18T04:47:14.530Z,4.70
2022-09-18T04:49:41.277Z,4.72
2022-09-18T04:52:07.924Z,4.85
2022-09-18T04:54:34.545Z,5.07
2022-09-18T04:57:01.161Z,4.72
2022-09-18T04:59:27.801Z,5.15
2022-09-18T05:01:54.471Z,5.07
2022-09-18T05:04:21.185Z,4.55
2022-09-18T05:06:48.025Z,4.78
2022-09-18T05:09:14.646Z,5.18
2022-09-18T05:11:41.223Z,4.80
2022-09-18T05:14:08.013Z,5.00
2022-09-18T05:16:34.754Z,4.80
2022-09-18T05:19:01.400Z,4.70
2022-09-18T05:21:28.040Z,4.78
2022-09-18T05:23:54.706Z,4.80
2022-09-18T05:26:21.306Z,4.68
2022-09-18T05:28:50.888Z,4.70
2022-09-18T05:31:17.918Z,4.40
2022-09-18T05:33:44.644Z,4.65
2022-09-18T05:36:11.272Z,4.70
2022-09-18T05:38:37.918Z,4.80
2022-09-18T05:41:04.786Z,5.05
2022-09-18T05:43:31.463Z,4.75
2022-09-18T05:46:02.209Z,4.82
2022-09-18T05:48:28.863Z,4.70
2022-09-18T05:50:56.646Z,4.82
2022-09-18T05:53:23.322Z,4.72
2022-09-18T05:55:50.052Z,4.85
2022-09-18T05:58:19.075Z,4.95
2022-09-18T06:00:46.482Z,4.75
2022-09-18T06:03:15.447Z,4.85
2022-09-18T06:05:42.739Z,4.80
2022-09-18T06:08:11.240Z,4.68
2022-09-18T06:10:39.820Z,5.18
2022-09-18T06:13:18.010Z,4.60
2022-09-18T06:15:50.198Z,4.60
2022-09-18T06:18:16.876Z,4.75
2022-09-18T06:20:50.850Z,4.97
2022-09-18T06:23:17.458Z,4.78
2022-09-18T06:25:44.055Z,4.50
2022-09-18T06:28:10.733Z,4.60
2022-09-18T06:30:37.433Z,4.97
2022-09-18T06:33:06.788Z,4.60
2022-09-18T06:35:40.099Z,4.95
2022-09-18T06:38:07.141Z,4.50
2022-09-18T06:40:34.932Z,4.68
2022-09-18T06:43:03.013Z,4.82
2022-09-18T06:45:31.137Z,4.80
2022-09-18T06:48:02.466Z,4.60
2022-09-18T06:50:29.876Z,4.80
2022-09-18T06:53:08.761Z,4.95
2022-09-18T06:55:38.306Z,5.10
2022-09-18T06:58:04.931Z,4.47
2022-09-18T07:00:31.670Z,4.75
2022-09-18T07:03:00.442Z,4.60
2022-09-18T07:05:29.147Z,4.57
2022-09-18T07:07:56.235Z,4.60
2022-09-18T07:10:23.313Z,4.45
2022-09-18T07:12:50.626Z,4.60
2022-09-18T07:15:20.155Z,4.57
2022-09-18T07:17:46.853Z,4.63
2022-09-18T07:20:14.826Z,4.50
2022-09-18T07:22:46.371Z,4.55
2022-09-18T07:25:13.983Z,4.53
2022-09-18T07:27:40.587Z,4.45
2022-09-18T07:30:07.742Z,4.40
2022-09-18T07:32:36.116Z,4.30
2022-09-18T07:35:02.895Z,4.57
2022-09-18T07:37:29.535Z,4.63
2022-09-18T07:39:56.192Z,4.47
2022-09-18T07:42:22.859Z,4.40
2022-09-18T07:44:49.492Z,4.63
2022-09-18T07:47:16.417Z,4.40
2022-09-18T07:49:43.267Z,4.43
2022-09-18T07:52:09.935Z,4.50
2022-09-18T07:54:36.661Z,4.35
2022-09-18T07:57:03.655Z,4.40
2022-09-18T07:59:30.311Z,4.30
2022-09-18T08:01:57.349Z,4.53
2022-09-18T08:04:24.339Z,4.50
2022-09-18T08:06:55.103Z,4.22
2022-09-18T08:09:22.339Z,4.45
2022-09-18T08:11:52.140Z,4.43
2022-09-18T08:14:18.890Z,4.32
2022-09-18T08:16:45.595Z,4.50
2022-09-18T08:19:12.933Z,4.30
2022-09-18T08:21:39.599Z,4.40
2022-09-18T08:24:06.345Z,4.40
2022-09-18T08:26:35.837Z,4.30
2022-09-18T08:29:02.446Z,4.25
2022-09-18T08:31:29.145Z,4.13
2022-09-18T08:33:55.817Z,4.82
2022-09-18T08:36:22.485Z,4.45
2022-09-18T08:38:52.109Z,4.18
2022-09-18T08:41:55.112Z,4.30
2022-09-18T08:44:28.836Z,4.65
2022-09-18T08:47:08.460Z,4.53
2022-09-18T08:49:40.934Z,4.63
2022-09-18T08:52:14.952Z,4.40
2022-09-18T08:54:47.480Z,4.70
2022-09-18T08:57:29.044Z,4.40
2022-09-18T09:00:03.752Z,4.70
2022-09-18T09:02:46.581Z,4.65
2022-09-18T09:05:16.875Z,4.97
2022-09-18T09:08:15.135Z,4.80
2022-09-18T09:11:02.624Z,4.68
2022-09-18T09:13:47.674Z,5.05
2022-09-18T09:16:40.720Z,4.93
2022-09-18T09:19:27.759Z,4.88
2022-09-18T09:22:17.647Z,5.15
2022-09-18T09:24:56.167Z,5.05
2022-09-18T09:27:38.025Z,4.90
2022-09-18T09:30:17.732Z,5.05
2022-09-18T09:32:56.602Z,4.72
2022-09-18T09:35:35.378Z,4.57
2022-09-18T09:38:10.183Z,4.80
2022-09-18T09:40:44.419Z,4.90
2022-09-18T09:43:35.436Z,5.10
2022-09-18T09:46:21.212Z,4.65
2022-09-18T09:49:01.241Z,4.68
2022-09-18T09:51:46.389Z,4.60
2022-09-18T09:54:13.030Z,4.20
2022-09-18T09:56:58.963Z,4.78
2022-09-18T09:59:51.745Z,5.65
2022-09-18T10:02:27.449Z,4.60
2022-09-18T10:05:02.765Z,4.50
2022-09-18T10:07:46.247Z,4.75
2022-09-18T10:10:45.477Z,4.40
2022-09-18T10:13:20.979Z,4.43
2022-09-18T10:15:51.347Z,4.40
2022-09-18T10:18:26.887Z,4.40
2022-09-18T10:21:03.707Z,4.28
2022-09-18T10:23:55.778Z,4.50
2022-09-18T10:26:31.931Z,4.35
2022-09-18T10:28:58.954Z,4.72
2022-09-18T10:31:50.029Z,4.30
2022-09-18T10:34:42.252Z,4.18
2022-09-18T10:37:29.960Z,4.43
2022-09-18T10:40:01.390Z,4.82
2022-09-18T10:42:30.140Z,4.20
2022-09-18T10:45:02.052Z,4.18
2022-09-18T10:47:34.379Z,4.40
2022-09-18T10:50:06.930Z,4.30
2022-09-18T10:52:37.561Z,4.40
2022-09-18T10:55:09.687Z,4.28
2022-09-18T10:57:38.022Z,4.30
2022-09-18T11:00:25.251Z,4.40
2022-09-18T11:02:57.479Z,4.20
2022-09-18T11:05:38.047Z,4.90
2022-09-18T11:08:16.699Z,4.40
2022-09-18T11:10:48.784Z,4.38
2022-09-18T11:13:23.455Z,4.35
2022-09-18T11:15:56.136Z,4.68
2022-09-18T11:18:24.838Z,4.60
2022-09-18T11:20:53.072Z,4.18
2022-09-18T11:23:35.759Z,4.30
2022-09-18T11:26:29.309Z,4.90
2022-09-18T11:29:00.542Z,4.40
2022-09-18T11:31:39.539Z,4.50
2022-09-18T11:34:26.281Z,4.88
2022-09-18T11:36:57.602Z,4.60
2022-09-18T11:39:31.119Z,4.50
2022-09-18T11:41:58.472Z,4.65
2022-09-18T11:44:34.129Z,4.53
2022-09-18T11:47:45.476Z,4.45
2022-09-18T11:50:25.173Z,4.78
2022-09-18T11:52:59.903Z,4.88
2022-09-18T11:55:26.550Z,4.70
2022-09-18T11:58:21.270Z,4.78
2022-09-18T12:00:54.220Z,4.70
2022-09-18T12:03:34.758Z,4.45
2022-09-18T12:06:12.523Z,5.00
2022-09-18T12:08:46.803Z,4.63
2022-09-18T12:11:36.526Z,4.60
2022-09-18T12:14:34.427Z,4.90
2022-09-18T12:17:32.198Z,4.97
2022-09-18T12:20:04.704Z,4.80
2022-09-18T12:22:47.464Z,4.47
2022-09-18T12:25:16.704Z,4.70
2022-09-18T12:27:51.884Z,4.60
2022-09-18T12:30:21.543Z,4.65
2022-09-18T12:33:06.066Z,4.90
2022-09-18T12:35:53.931Z,4.80
2022-09-18T12:38:38.783Z,4.68
2022-09-18T12:41:29.278Z,4.60
2022-09-18T12:44:17.321Z,5.00
2022-09-18T12:47:20.466Z,4.70
2022-09-18T12:50:05.918Z,4.60
2022-09-18T12:53:00.277Z,4.68
2022-09-18T12:55:58.835Z,4.80
2022-09-18T12:58:43.983Z,4.50
2022-09-18T13:01:32.507Z,4.55
2022-09-18T13:04:39.881Z,5.10
2022-09-18T13:07:14.575Z,4.90
2022-09-18T13:09:49.817Z,4.35
2022-09-18T13:12:46.620Z,4.53
2022-09-18T13:15:27.672Z,4.30
2022-09-18T13:18:20.735Z,5.13
2022-09-18T13:20:47.599Z,4.82
2022-09-18T13:23:25.957Z,4.28
2022-09-18T13:25:53.460Z,4.38
2022-09-18T13:28:22.629Z,4.20
2022-09-18T13:31:24.451Z,4.30
2022-09-18T13:34:04.530Z,4.40
2022-09-18T13:36:35.309Z,4.40
2022-09-18T13:39:14.119Z,4.63
2022-09-18T13:41:50.085Z,4.50
2022-09-18T13:44:27.275Z,4.40
2022-09-18T13:46:57.166Z,4.43
2022-09-18T13:49:30.341Z,4.80
2022-09-18T13:52:29.452Z,5.00
2022-09-18T13:55:11.612Z,4.72
2022-09-18T13:57:39.205Z,4.60
2022-09-18T14:00:21.022Z,4.57
2022-09-18T14:02:49.204Z,4.55
2022-09-18T14:05:33.982Z,4.55
2022-09-18T14:08:18.631Z,4.55
2022-09-18T14:11:05.436Z,4.70
2022-09-18T14:13:39.588Z,4.80
2022-09-18T14:16:25.873Z,4.43
2022-09-18T14:19:04.728Z,4.43
2022-09-18T14:21:43.265Z,4.55
2022-09-18T14:24:53.276Z,4.57
2022-09-18T14:27:25.681Z,6.43
2022-09-18T14:29:55.724Z,4.40
2022-09-18T14:32:22.967Z,4.20
2022-09-18T14:34:51.020Z,4.65
2022-09-18T14:37:29.207Z,4.70
2022-09-18T14:39:56.964Z,5.15
2022-09-18T14:42:23.597Z,4.40
2022-09-18T14:45:13.469Z,4.50
2022-09-18T14:47:42.053Z,4.30
2022-09-18T14:50:26.861Z,4.40
2022-09-18T14:52:54.894Z,4.43
2022-09-18T14:55:26.249Z,4.50
2022-09-18T14:58:04.787Z,4.80
2022-09-18T15:00:34.205Z,4.50
2022-09-18T15:03:14.169Z,4.50
2022-09-18T15:05:40.802Z,4.63
2022-09-18T15:08:15.433Z,4.75
2022-09-18T15:10:48.332Z,4.65
2022-09-18T15:13:17.169Z,5.13
2022-09-18T15:15:46.002Z,4.50
2022-09-18T15:18:23.677Z,4.80
2022-09-18T15:20:55.558Z,4.70
2022-09-18T15:23:38.193Z,4.90
2022-09-18T15:26:14.941Z,5.00
2022-09-18T15:28:44.545Z,4.90
2022-09-18T15:31:13.091Z,4.90
2022-09-18T15:34:23.341Z,4.70
2022-09-18T15:37:00.565Z,4.90
2022-09-18T15:39:34.537Z,4.80
2022-09-18T15:42:34.833Z,4.70
2022-09-18T15:45:01.410Z,4.80
2022-09-18T15:47:32.742Z,5.00
2022-09-18T15:50:01.503Z,4.68
2022-09-18T15:52:41.599Z,4.70
2022-09-18T15:55:17.190Z,4.68
2022-09-18T15:58:00.028Z,5.10
2022-09-18T16:00:29.679Z,4.72
2022-09-18T16:02:59.616Z,5.18
2022-09-18T16:05:28.253Z,4.85
2022-09-18T16:08:02.896Z,4.60
2022-09-18T16:10:35.089Z,5.75
2022-09-18T16:13:06.153Z,5.07
2022-09-18T16:15:36.156Z,4.90
2022-09-18T16:18:14.878Z,5.25
2022-09-18T16:20:47.806Z,4.80
2022-09-18T16:23:36.730Z,4.93
2022-09-18T16:26:06.423Z,5.30
2022-09-18T16:28:36.711Z,4.60
2022-09-18T16:31:03.751Z,5.00
2022-09-18T16:33:33.481Z,5.03
2022-09-18T16:36:08.919Z,5.30
2022-09-18T16:38:35.726Z,5.00
2022-09-18T16:41:02.701Z,5.38
2022-09-18T16:43:29.761Z,5.10
2022-09-18T16:45:56.458Z,4.57
2022-09-18T16:48:24.438Z,4.80
2022-09-18T16:50:51.066Z,5.00
2022-09-18T16:53:17.989Z,4.68
2022-09-18T16:55:50.026Z,4.65
2022-09-18T16:58:19.063Z,4.95
2022-09-18T17:00:46.043Z,4.97
2022-09-18T17:03:13.196Z,5.00
2022-09-18T17:05:39.967Z,4.85
2022-09-18T17:08:07.394Z,5.03
2022-09-18T17:10:35.130Z,4.95
2022-09-18T17:13:02.375Z,5.15
2022-09-18T17:15:29.229Z,4.60
2022-09-18T17:17:55.865Z,5.10
2022-09-18T17:20:23.080Z,4.53
2022-09-18T17:22:50.936Z,4.80
2022-09-18T17:25:18.292Z,4.88
2022-09-18T17:27:44.997Z,5.00
2022-09-18T17:30:12.657Z,4.95
2022-09-18T17:32:39.349Z,5.13
2022-09-18T17:35:06.572Z,5.20
2022-09-18T17:37:33.255Z,5.70
2022-09-18T17:40:00.953Z,5.03
2022-09-18T17:42:27.610Z,5.00
2022-09-18T17:44:54.239Z,5.30
2022-09-18T17:47:21.302Z,5.13
2022-09-18T17:49:47.962Z,5.30
2022-09-18T17:52:15.282Z,5.38
2022-09-18T17:54:42.302Z,5.40
2022-09-18T17:57:11.980Z,5.20
2022-09-18T17:59:40.537Z,5.40
2022-09-18T18:02:09.231Z,6.00
2022-09-18T18:04:36.351Z,5.20
2022-09-18T18:07:04.590Z,5.53
2022-09-18T18:09:31.767Z,5.32
2022-09-18T18:11:58.516Z,5.40
2022-09-18T18:14:25.173Z,5.63
2022-09-18T18:16:52.752Z,5.05
2022-09-18T18:19:20.171Z,5.13
2022-09-18T18:21:46.866Z,5.25
2022-09-18T18:24:16.832Z,5.72
2022-09-18T18:26:44.291Z,5.30
2022-09-18T18:29:13.201Z,5.05
2022-09-18T18:31:41.975Z,5.30
2022-09-18T18:34:10.808Z,5.60
2022-09-18T18:36:40.091Z,5.40
2022-09-18T18:39:11.926Z,5.80
2022-09-18T18:41:39.568Z,5.38
2022-09-18T18:44:06.949Z,5.43
2022-09-18T18:46:36.111Z,5.15
2022-09-18T18:49:08.901Z,5.40
2022-09-18T18:51:42.952Z,5.53
2022-09-18T18:54:10.254Z,5.90
2022-09-18T18:56:38.641Z,5.60
2022-09-18T18:59:07.426Z,5.65
2022-09-18T19:01:34.342Z,5.50
2022-09-18T19:04:07.151Z,5.65
2022-09-18T19:06:36.355Z,5.63
2022-09-18T19:09:09.306Z,5.43
2022-09-18T19:11:48.033Z,5.32
2022-09-18T19:14:23.763Z,5.35
2022-09-18T19:16:50.989Z,5.50
2022-09-18T19:19:19.762Z,5.60
2022-09-18T19:21:47.185Z,5.38
2022-09-18T19:24:14.482Z,5.10
2022-09-18T19:26:42.065Z,5.13
2022-09-18T19:29:13.095Z,5.28
2022-09-18T19:31:41.336Z,5.00
2022-09-18T19:34:11.860Z,4.63
2022-09-18T19:36:38.855Z,4.57
2022-09-18T19:39:07.681Z,4.35
2022-09-18T19:41:55.222Z,4.80
2022-09-18T19:44:36.177Z,4.70
2022-09-18T19:47:11.305Z,4.80
2022-09-18T19:49:38.590Z,5.00
2022-09-18T19:52:21.251Z,4.55
2022-09-18T19:54:49.679Z,4.95
2022-09-18T19:57:17.287Z,4.93
2022-09-18T19:59:44.306Z,4.78
2022-09-18T20:02:17.188Z,4.60
2022-09-18T20:04:43.853Z,4.68
2022-09-18T20:07:10.835Z,4.72
2022-09-18T20:09:37.495Z,5.00
2022-09-18T20:12:04.336Z,4.78
2022-09-18T20:14:31.012Z,4.80
2022-09-18T20:16:57.797Z,4.57
2022-09-18T20:19:25.227Z,4.90
2022-09-18T20:21:52.922Z,4.88
2022-09-18T20:24:19.989Z,5.40
2022-09-18T20:26:46.953Z,4.90
2022-09-18T20:29:16.128Z,4.90
2022-09-18T20:31:43.280Z,4.85
2022-09-18T20:34:11.021Z,4.72
2022-09-18T20:36:38.128Z,4.88
2022-09-18T20:39:05.253Z,4.78
2022-09-18T20:41:32.065Z,4.70
2022-09-18T20:44:05.653Z,4.85
2022-09-18T20:46:37.156Z,4.60
2022-09-18T20:49:04.777Z,5.15
2022-09-18T20:51:34.775Z,4.63
2022-09-18T20:54:03.294Z,4.90
2022-09-18T20:56:36.271Z,4.80
2022-09-18T20:59:05.008Z,4.80
2022-09-18T21:01:37.841Z,4.95
2022-09-18T21:04:04.714Z,5.15
2022-09-18T21:06:33.395Z,4.82
2022-09-18T21:09:05.127Z,4.80
2022-09-18T21:11:34.803Z,5.10
2022-09-18T21:14:03.212Z,4.72
2022-09-18T21:16:33.804Z,4.82
2022-09-18T21:19:01.880Z,5.10
2022-09-18T21:21:30.857Z,4.93
2022-09-18T21:24:01.817Z,4.68
2022-09-18T21:26:34.503Z,4.72
2022-09-18T21:29:05.212Z,5.40
2022-09-18T21:31:39.190Z,5.20
2022-09-18T21:34:05.983Z,4.70
2022-09-18T21:36:38.498Z,4.68
2022-09-18T21:39:09.551Z,4.82
2022-09-18T21:41:37.944Z,4.88
2022-09-18T21:44:06.666Z,4.95
2022-09-18T21:46:38.731Z,5.10
2022-09-18T21:49:07.964Z,5.20
2022-09-18T21:51:36.114Z,6.40
2022-09-18T21:54:05.375Z,5.60
2022-09-18T21:56:32.928Z,4.85
2022-09-18T21:59:00.256Z,4.90
2022-09-18T22:01:32.149Z,5.25
2022-09-18T22:04:00.878Z,5.15
2022-09-18T22:06:30.576Z,5.40
2022-09-18T22:08:58.813Z,5.45
2022-09-18T22:11:27.616Z,5.35
2022-09-18T22:13:58.240Z,5.25
2022-09-18T22:16:27.004Z,5.60
2022-09-18T22:18:54.315Z,5.20
2022-09-18T22:21:26.621Z,5.07
2022-09-18T22:23:55.765Z,5.00
2022-09-18T22:26:25.078Z,5.05
2022-09-18T22:28:54.348Z,4.97
2022-09-18T22:31:21.376Z,5.25
2022-09-18T22:33:49.309Z,4.80
2022-09-18T22:36:16.015Z,4.97
2022-09-18T22:38:42.738Z,5.03
2022-09-18T22:41:09.913Z,5.28
2022-09-18T22:43:37.402Z,5.00
2022-09-18T22:46:12.120Z,5.05
2022-09-18T22:48:39.879Z,5.13
2022-09-18T22:51:18.433Z,5.15
2022-09-18T22:53:50.766Z,5.13
2022-09-18T22:56:19.325Z,5.40
2022-09-18T22:58:46.343Z,4.90
2022-09-18T23:01:18.370Z,5.07
2022-09-18T23:03:46.332Z,4.80
2022-09-18T23:06:14.370Z,4.85
2022-09-18T23:08:41.183Z,4.82
2022-09-18T23:11:14.782Z,4.93
2022-09-18T23:13:46.614Z,5.10
2022-09-18T23:16:13.738Z,5.40
2022-09-18T23:18:41.770Z,4.95
2022-09-18T23:21:13.720Z,4.90
2022-09-18T23:23:42.637Z,4.97
2022-09-18T23:26:23.147Z,5.05
2022-09-18T23:28:52.116Z,5.15
2022-09-18T23:31:22.092Z,5.03
2022-09-18T23:33:51.343Z,5.45
2022-09-18T23:36:22.676Z,5.15
2022-09-18T23:38:57.911Z,5.50
2022-09-18T23:41:25.481Z,5.72
2022-09-18T23:43:53.974Z,5.20
2022-09-18T23:46:22.123Z,4.90
2022-09-18T23:48:54.778Z,5.10
2022-09-18T23:51:23.352Z,5.35
2022-09-18T23:53:50.172Z,5.00
2022-09-18T23:56:17.344Z,5.35
2022-09-18T23:58:47.329Z,5.30
